createdAt,value
2018-12-19T00:01:00.440Z,0
2018-12-19T00:02:09.115Z,0
2018-12-19T00:03:17.781Z,0
2018-12-19T00:04:26.457Z,0
2018-12-19T00:05:35.114Z,0
2018-12-19T00:06:44.041Z,0
2018-12-19T00:07:52.969Z,0
2018-12-19T00:09:07.987Z,0
2018-12-19T00:10:16.644Z,0
2018-12-19T00:11:25.316Z,0
2018-12-19T00:12:33.992Z,0
2018-12-19T00:13:42.663Z,0
2018-12-19T00:14:51.319Z,0
2018-12-19T00:15:59.988Z,0
2018-12-19T00:17:08.658Z,0
2018-12-19T00:18:17.329Z,0
2018-12-19T00:19:25.996Z,0
2018-12-19T00:20:34.651Z,0
2018-12-19T00:21:43.322Z,0
2018-12-19T00:22:51.985Z,0
2018-12-19T00:24:00.661Z,0
2018-12-19T00:25:09.315Z,0
2018-12-19T00:26:17.985Z,0
2018-12-19T00:27:26.651Z,0
2018-12-19T00:28:35.330Z,0
2018-12-19T00:29:44.005Z,0
2018-12-19T00:30:52.675Z,0
2018-12-19T00:32:01.344Z,0
2018-12-19T00:33:10.023Z,0
2018-12-19T00:34:18.692Z,0
2018-12-19T00:35:27.368Z,0
2018-12-19T00:36:36.286Z,0
2018-12-19T00:37:44.959Z,0
2018-12-19T00:38:53.883Z,0
2018-12-19T00:40:02.556Z,0
2018-12-19T00:41:11.221Z,0
2018-12-19T00:42:19.883Z,0
2018-12-19T00:43:28.553Z,0
2018-12-19T00:44:37.221Z,0
2018-12-19T00:45:46.155Z,0
2018-12-19T00:46:54.821Z,0
2018-12-19T00:48:03.506Z,0
2018-12-19T00:49:12.427Z,0
2018-12-19T00:50:21.105Z,0
2018-12-19T00:51:29.771Z,0
2018-12-19T00:52:38.446Z,0
2018-12-19T00:53:47.111Z,0
2018-12-19T00:54:55.782Z,0
2018-12-19T00:56:04.450Z,0
2018-12-19T00:57:13.144Z,0
2018-12-19T00:58:21.815Z,0
2018-12-19T00:59:30.473Z,0
2018-12-19T01:00:39.145Z,0
2018-12-19T01:01:47.808Z,0
2018-12-19T01:02:56.729Z,0
2018-12-19T01:04:05.665Z,0
2018-12-19T01:05:14.336Z,0
2018-12-19T01:06:23.006Z,0
2018-12-19T01:07:31.672Z,0
2018-12-19T01:08:40.333Z,0
2018-12-19T01:09:49.014Z,0
2018-12-19T01:10:57.679Z,0
2018-12-19T01:12:06.345Z,0
2018-12-19T01:13:15.012Z,0
2018-12-19T01:14:23.674Z,0
2018-12-19T01:15:32.351Z,0
2018-12-19T01:16:41.015Z,0
2018-12-19T01:17:49.679Z,0
2018-12-19T01:18:58.340Z,0
2018-12-19T01:20:07.022Z,0
2018-12-19T01:21:15.685Z,0
2018-12-19T01:22:24.352Z,0
2018-12-19T01:23:33.019Z,0
2018-12-19T01:24:41.699Z,0
2018-12-19T01:25:50.364Z,0
2018-12-19T01:26:59.036Z,0
2018-12-19T01:28:07.703Z,0
2018-12-19T01:29:16.382Z,0
2018-12-19T01:30:25.308Z,0
2018-12-19T01:31:33.975Z,0
2018-12-19T01:32:42.651Z,0
2018-12-19T01:33:51.570Z,0
2018-12-19T01:35:00.284Z,0
2018-12-19T01:36:08.949Z,0
2018-12-19T01:37:17.684Z,0
2018-12-19T01:38:26.348Z,0
2018-12-19T01:39:35.012Z,0
2018-12-19T01:40:43.676Z,0
2018-12-19T01:41:52.409Z,0
2018-12-19T01:43:01.333Z,0
2018-12-19T01:44:10.005Z,0
2018-12-19T01:45:18.930Z,0
2018-12-19T01:46:27.593Z,0
2018-12-19T01:47:36.268Z,0
2018-12-19T01:48:44.936Z,0
2018-12-19T01:49:53.598Z,0
2018-12-19T01:51:02.274Z,0
2018-12-19T01:52:10.945Z,0
2018-12-19T01:53:19.865Z,0
2018-12-19T01:54:29.046Z,0
2018-12-19T01:55:37.704Z,0
2018-12-19T01:56:46.379Z,0
2018-12-19T01:57:55.040Z,0
2018-12-19T01:59:03.701Z,0
2018-12-19T02:00:12.369Z,0
2018-12-19T02:01:21.041Z,0
2018-12-19T02:02:29.705Z,0
2018-12-19T02:03:38.378Z,0
2018-12-19T02:04:47.294Z,0
2018-12-19T02:05:55.959Z,0
2018-12-19T02:07:04.626Z,0
2018-12-19T02:08:13.296Z,0
2018-12-19T02:09:21.969Z,0
2018-12-19T02:10:30.634Z,0
2018-12-19T02:11:39.297Z,0
2018-12-19T02:12:47.965Z,0
2018-12-19T02:13:56.639Z,0
2018-12-19T02:15:05.298Z,0
2018-12-19T02:16:13.964Z,0
2018-12-19T02:17:22.628Z,0
2018-12-19T02:18:31.299Z,0
2018-12-19T02:19:39.960Z,0
2018-12-19T02:20:48.624Z,0
2018-12-19T02:21:57.294Z,0
2018-12-19T02:23:05.970Z,0
2018-12-19T02:24:14.649Z,0
2018-12-19T02:25:23.567Z,0
2018-12-19T02:26:32.493Z,0
2018-12-19T02:27:41.161Z,0
2018-12-19T02:28:50.085Z,0
2018-12-19T02:29:58.750Z,0
2018-12-19T02:31:07.461Z,0
2018-12-19T02:32:16.136Z,0
2018-12-19T02:33:24.812Z,0
2018-12-19T02:34:33.475Z,0
2018-12-19T02:35:42.148Z,0
2018-12-19T02:36:51.064Z,0
2018-12-19T02:37:59.748Z,0
2018-12-19T02:39:08.431Z,0
2018-12-19T02:40:17.367Z,0
2018-12-19T02:41:26.035Z,0
2018-12-19T02:42:34.709Z,0
2018-12-19T02:43:43.390Z,0
2018-12-19T02:44:52.073Z,0
2018-12-19T02:46:00.745Z,0
2018-12-19T02:47:09.724Z,0
2018-12-19T02:48:18.407Z,0
2018-12-19T02:49:27.337Z,0
2018-12-19T02:50:36.286Z,0
2018-12-19T02:51:44.939Z,0
2018-12-19T02:52:53.608Z,0
2018-12-19T02:54:02.332Z,0
2018-12-19T02:55:11.009Z,0
2018-12-19T02:56:19.666Z,0
2018-12-19T02:57:28.339Z,0
2018-12-19T02:58:37.805Z,0
2018-12-19T02:59:46.495Z,0
2018-12-19T03:00:55.162Z,0
2018-12-19T03:02:03.835Z,0
2018-12-19T03:03:12.508Z,0
2018-12-19T03:04:21.438Z,0
2018-12-19T03:05:30.115Z,0
2018-12-19T03:06:38.779Z,0
2018-12-19T03:07:47.452Z,0
2018-12-19T03:08:56.116Z,0
2018-12-19T03:10:04.800Z,0
2018-12-19T03:11:13.469Z,0
2018-12-19T03:12:22.144Z,0
2018-12-19T03:13:30.801Z,0
2018-12-19T03:14:39.478Z,0
2018-12-19T03:15:48.149Z,0
2018-12-19T03:16:56.830Z,0
2018-12-19T03:18:05.528Z,0
2018-12-19T03:19:14.457Z,0
2018-12-19T03:20:23.131Z,0
2018-12-19T03:21:32.061Z,0
2018-12-19T03:22:40.738Z,0
2018-12-19T03:23:49.650Z,0
2018-12-19T03:24:58.576Z,0
2018-12-19T03:26:07.249Z,0
2018-12-19T03:27:16.191Z,0
2018-12-19T03:28:24.878Z,0
2018-12-19T03:29:33.546Z,0
2018-12-19T03:30:42.299Z,0
2018-12-19T03:31:51.487Z,0
2018-12-19T03:33:00.230Z,0
2018-12-19T03:34:09.165Z,0
2018-12-19T03:35:17.846Z,0
2018-12-19T03:36:26.510Z,0
2018-12-19T03:37:35.192Z,0
2018-12-19T03:38:44.378Z,0
2018-12-19T03:39:59.175Z,0
2018-12-19T03:41:08.450Z,0
2018-12-19T03:42:17.114Z,0
2018-12-19T03:43:25.807Z,0
2018-12-19T03:44:34.748Z,0
2018-12-19T03:45:43.688Z,0
2018-12-19T03:46:52.601Z,0
2018-12-19T03:48:01.321Z,0
2018-12-19T03:49:09.985Z,0
2018-12-19T03:50:18.663Z,0
2018-12-19T03:51:27.318Z,0
2018-12-19T03:52:36.004Z,0
2018-12-19T03:53:44.738Z,0
2018-12-19T03:54:53.421Z,0
2018-12-19T03:56:02.082Z,0
2018-12-19T03:57:10.746Z,0
2018-12-19T03:58:19.420Z,0
2018-12-19T03:59:28.342Z,0
2018-12-19T04:00:37.019Z,0
2018-12-19T04:01:45.689Z,0
2018-12-19T04:02:54.369Z,0
2018-12-19T04:04:03.026Z,0
2018-12-19T04:05:11.711Z,0
2018-12-19T04:06:20.677Z,0
2018-12-19T04:07:29.380Z,0
2018-12-19T04:08:38.053Z,0
2018-12-19T04:09:47.095Z,0
2018-12-19T04:10:56.454Z,0
2018-12-19T04:12:05.236Z,0
2018-12-19T04:13:13.980Z,0
2018-12-19T04:14:22.823Z,0
2018-12-19T04:15:31.845Z,0
2018-12-19T04:16:40.520Z,0
2018-12-19T04:17:49.202Z,0
2018-12-19T04:18:57.870Z,0
2018-12-19T04:20:06.543Z,0
2018-12-19T04:21:15.474Z,0
2018-12-19T04:22:24.161Z,0
2018-12-19T04:23:32.832Z,0
2018-12-19T04:24:41.506Z,0
2018-12-19T04:25:50.175Z,0
2018-12-19T04:26:58.858Z,0
2018-12-19T04:28:07.874Z,0
2018-12-19T04:29:17.053Z,0
2018-12-19T04:30:25.995Z,0
2018-12-19T04:31:34.678Z,0
2018-12-19T04:32:43.375Z,0
2018-12-19T04:33:52.050Z,0
2018-12-19T04:35:00.721Z,0
2018-12-19T04:36:09.393Z,0
2018-12-19T04:37:18.070Z,0
2018-12-19T04:38:26.746Z,0
2018-12-19T04:39:35.442Z,0
2018-12-19T04:40:44.365Z,0
2018-12-19T04:41:53.305Z,0
2018-12-19T04:43:02.028Z,0
2018-12-19T04:44:10.807Z,0
2018-12-19T04:45:19.482Z,0
2018-12-19T04:46:28.163Z,0
2018-12-19T04:47:36.832Z,0
2018-12-19T04:48:45.768Z,0
2018-12-19T04:49:54.437Z,0
2018-12-19T04:51:03.111Z,0
2018-12-19T04:52:11.786Z,0
2018-12-19T04:53:21.159Z,0
2018-12-19T04:54:29.843Z,0
2018-12-19T04:55:38.545Z,0
2018-12-19T04:56:47.232Z,0
2018-12-19T04:57:56.166Z,0
2018-12-19T04:59:04.847Z,0
2018-12-19T05:00:13.520Z,0
2018-12-19T05:01:22.194Z,0
2018-12-19T05:02:31.125Z,0
2018-12-19T05:03:39.796Z,0
2018-12-19T05:04:48.720Z,0
2018-12-19T05:05:57.646Z,0
2018-12-19T05:07:06.313Z,0
2018-12-19T05:08:14.984Z,0
2018-12-19T05:09:23.663Z,0
2018-12-19T05:10:32.337Z,0
2018-12-19T05:11:41.266Z,0
2018-12-19T05:12:49.933Z,0
2018-12-19T05:13:58.614Z,0
2018-12-19T05:15:07.300Z,0
2018-12-19T05:16:15.977Z,0
2018-12-19T05:17:24.900Z,0
2018-12-19T05:18:33.577Z,0
2018-12-19T05:19:42.259Z,0
2018-12-19T05:20:51.189Z,0
2018-12-19T05:21:59.848Z,0
2018-12-19T05:23:08.769Z,0
2018-12-19T05:24:18.067Z,0
2018-12-19T05:25:26.998Z,0
2018-12-19T05:26:35.658Z,0
2018-12-19T05:27:44.582Z,0
2018-12-19T05:28:53.254Z,0
2018-12-19T05:30:01.929Z,0
2018-12-19T05:31:10.607Z,0
2018-12-19T05:32:19.270Z,0
2018-12-19T05:33:28.196Z,0
2018-12-19T05:34:36.860Z,0
2018-12-19T05:35:45.537Z,0
2018-12-19T05:36:54.200Z,0
2018-12-19T05:38:02.872Z,0
2018-12-19T05:39:11.537Z,0
2018-12-19T05:40:25.741Z,0
2018-12-19T05:41:34.656Z,0
2018-12-19T05:42:43.326Z,0
2018-12-19T05:43:51.991Z,0
2018-12-19T05:45:00.666Z,0
2018-12-19T05:46:09.335Z,0
2018-12-19T05:47:18.004Z,0
2018-12-19T05:48:26.666Z,0
2018-12-19T05:49:35.330Z,0
2018-12-19T05:50:44.011Z,0
2018-12-19T05:51:52.672Z,0
2018-12-19T05:53:01.412Z,0
2018-12-19T05:54:10.074Z,0
2018-12-19T05:55:18.755Z,0
2018-12-19T05:56:27.417Z,0
2018-12-19T05:57:36.101Z,0
2018-12-19T05:58:44.762Z,0
2018-12-19T05:59:53.441Z,0
2018-12-19T06:01:02.099Z,0
2018-12-19T06:02:10.764Z,0
2018-12-19T06:03:19.436Z,0
2018-12-19T06:04:28.109Z,0
2018-12-19T06:05:36.782Z,0
2018-12-19T06:06:45.453Z,0
2018-12-19T06:07:54.133Z,0
2018-12-19T06:09:02.796Z,0
2018-12-19T06:10:11.473Z,0
2018-12-19T06:11:20.137Z,0
2018-12-19T06:12:28.815Z,0
2018-12-19T06:13:37.473Z,0
2018-12-19T06:14:46.389Z,0
2018-12-19T06:15:55.234Z,0
2018-12-19T06:17:03.926Z,0
2018-12-19T06:18:12.590Z,0
2018-12-19T06:19:21.263Z,0
2018-12-19T06:20:29.926Z,0
2018-12-19T06:21:38.768Z,0
2018-12-19T06:22:47.432Z,0
2018-12-19T06:23:56.094Z,0
2018-12-19T06:25:05.077Z,0
2018-12-19T06:26:14.263Z,0
2018-12-19T06:27:22.939Z,0
2018-12-19T06:28:31.837Z,0
2018-12-19T06:29:40.760Z,0
2018-12-19T06:30:49.426Z,0
2018-12-19T06:31:58.108Z,0
2018-12-19T06:33:06.781Z,0
2018-12-19T06:34:15.456Z,0
2018-12-19T06:35:24.126Z,0
2018-12-19T06:36:32.805Z,0
2018-12-19T06:37:41.471Z,0
2018-12-19T06:38:50.149Z,0
2018-12-19T06:39:58.813Z,0
2018-12-19T06:41:07.737Z,0
2018-12-19T06:42:16.402Z,0
2018-12-19T06:43:25.075Z,0
2018-12-19T06:44:33.764Z,0
2018-12-19T06:45:42.451Z,0
2018-12-19T06:46:51.123Z,0
2018-12-19T06:47:59.786Z,0
2018-12-19T06:49:08.525Z,0
2018-12-19T06:50:17.249Z,0
2018-12-19T06:51:27.798Z,0
2018-12-19T06:52:36.465Z,0
2018-12-19T06:53:45.142Z,0
2018-12-19T06:54:54.069Z,0
2018-12-19T06:56:02.738Z,0
2018-12-19T06:57:11.889Z,0
2018-12-19T06:58:20.574Z,0
2018-12-19T06:59:29.244Z,0
2018-12-19T07:00:37.935Z,0
2018-12-19T07:01:46.848Z,0
2018-12-19T07:02:55.512Z,0
2018-12-19T07:04:04.192Z,0
2018-12-19T07:05:12.864Z,0
2018-12-19T07:06:21.533Z,0
2018-12-19T07:07:30.204Z,0
2018-12-19T07:08:38.880Z,0
2018-12-19T07:09:47.553Z,0
2018-12-19T07:10:56.247Z,0
2018-12-19T07:12:04.909Z,0
2018-12-19T07:13:14.093Z,0
2018-12-19T07:14:22.759Z,0
2018-12-19T07:15:31.437Z,0
2018-12-19T07:16:45.773Z,0
2018-12-19T07:17:54.449Z,0
2018-12-19T07:19:03.117Z,0
2018-12-19T07:20:11.792Z,0
2018-12-19T07:21:20.463Z,0
2018-12-19T07:22:29.127Z,0
2018-12-19T07:23:37.792Z,0
2018-12-19T07:24:46.738Z,0
2018-12-19T07:25:55.409Z,0
2018-12-19T07:27:04.089Z,0
2018-12-19T07:28:13.011Z,0
2018-12-19T07:29:21.680Z,0
2018-12-19T07:30:30.361Z,0
2018-12-19T07:31:39.035Z,0
2018-12-19T07:32:47.704Z,0
2018-12-19T07:33:56.374Z,0
2018-12-19T07:35:05.037Z,0
2018-12-19T07:36:13.968Z,0
2018-12-19T07:37:22.633Z,0
2018-12-19T07:38:31.304Z,0
2018-12-19T07:39:39.974Z,0
2018-12-19T07:40:54.200Z,0
2018-12-19T07:42:02.875Z,0
2018-12-19T07:43:11.676Z,0
2018-12-19T07:44:20.607Z,0
2018-12-19T07:45:29.271Z,0
2018-12-19T07:46:37.949Z,0
2018-12-19T07:47:46.627Z,0
2018-12-19T07:48:55.296Z,0
2018-12-19T07:50:03.964Z,0
2018-12-19T07:51:12.886Z,0
2018-12-19T07:52:21.546Z,5
2018-12-19T07:53:30.222Z,5
2018-12-19T07:54:38.896Z,5
2018-12-19T07:55:47.824Z,5
2018-12-19T07:56:56.485Z,5
2018-12-19T07:58:05.155Z,5
2018-12-19T07:59:14.077Z,5
2018-12-19T08:00:27.410Z,5
2018-12-19T08:01:36.249Z,5
2018-12-19T08:02:45.174Z,5
2018-12-19T08:03:53.853Z,5
2018-12-19T08:05:02.771Z,5
2018-12-19T08:06:11.441Z,5
2018-12-19T08:07:20.103Z,5
2018-12-19T08:08:28.803Z,5
2018-12-19T08:09:37.741Z,5
2018-12-19T08:10:51.985Z,5
2018-12-19T08:12:00.947Z,5
2018-12-19T08:13:09.625Z,5
2018-12-19T08:14:18.301Z,5
2018-12-19T08:15:26.974Z,10
2018-12-19T08:16:35.649Z,10
2018-12-19T08:17:44.313Z,10
2018-12-19T08:18:52.981Z,10
2018-12-19T08:20:01.652Z,10
2018-12-19T08:21:10.329Z,10
2018-12-19T08:22:19.251Z,10
2018-12-19T08:23:27.933Z,10
2018-12-19T08:24:36.598Z,10
2018-12-19T08:25:45.280Z,10
2018-12-19T08:26:53.939Z,10
2018-12-19T08:28:02.631Z,10
2018-12-19T08:29:11.308Z,10
2018-12-19T08:30:20.324Z,10
2018-12-19T08:31:29.255Z,10
2018-12-19T08:32:37.917Z,10
2018-12-19T08:33:46.590Z,10
2018-12-19T08:34:55.254Z,10
2018-12-19T08:36:04.197Z,10
2018-12-19T08:37:12.953Z,10
2018-12-19T08:38:22.064Z,10
2018-12-19T08:39:30.930Z,10
2018-12-19T08:40:39.821Z,15
2018-12-19T08:41:48.610Z,15
2018-12-19T08:42:57.344Z,10
2018-12-19T08:44:06.064Z,10
2018-12-19T08:45:14.744Z,10
2018-12-19T08:46:23.543Z,10
2018-12-19T08:47:32.338Z,10
2018-12-19T08:48:41.296Z,10
2018-12-19T08:49:50.006Z,10
2018-12-19T08:50:58.798Z,10
2018-12-19T08:52:07.720Z,10
2018-12-19T08:53:16.394Z,10
2018-12-19T08:54:25.050Z,15
2018-12-19T08:55:33.740Z,15
2018-12-19T08:56:42.652Z,15
2018-12-19T08:57:51.329Z,15
2018-12-19T08:59:00.006Z,15
2018-12-19T09:00:08.683Z,15
2018-12-19T09:01:17.349Z,15
2018-12-19T09:02:26.034Z,15
2018-12-19T09:03:34.699Z,15
2018-12-19T09:04:43.374Z,15
2018-12-19T09:05:52.045Z,15
2018-12-19T09:07:00.721Z,15
2018-12-19T09:08:09.396Z,15
2018-12-19T09:09:18.064Z,15
2018-12-19T09:10:26.733Z,15
2018-12-19T09:11:35.656Z,15
2018-12-19T09:12:44.334Z,15
2018-12-19T09:13:53.006Z,10
2018-12-19T09:15:02.733Z,10
2018-12-19T09:16:11.650Z,15
2018-12-19T09:17:20.329Z,10
2018-12-19T09:18:28.992Z,15
2018-12-19T09:19:37.666Z,15
2018-12-19T09:20:46.335Z,15
2018-12-19T09:21:55.252Z,15
2018-12-19T09:23:03.930Z,15
2018-12-19T09:24:12.629Z,15
2018-12-19T09:25:21.557Z,20
2018-12-19T09:26:30.227Z,20
2018-12-19T09:27:38.960Z,25
2018-12-19T09:28:47.639Z,25
2018-12-19T09:29:56.314Z,30
2018-12-19T09:31:04.991Z,25
2018-12-19T09:32:13.732Z,35
2018-12-19T09:33:29.665Z,45
2018-12-19T09:34:38.334Z,45
2018-12-19T09:35:47.009Z,45
2018-12-19T09:36:55.933Z,45
2018-12-19T09:38:04.620Z,50
2018-12-19T09:39:13.302Z,50
2018-12-19T09:40:22.223Z,50
2018-12-19T09:41:30.884Z,50
2018-12-19T09:42:39.823Z,55
2018-12-19T09:43:48.496Z,55
2018-12-19T09:44:57.170Z,55
2018-12-19T09:46:06.095Z,60
2018-12-19T09:47:14.764Z,50
2018-12-19T09:48:23.440Z,50
2018-12-19T09:49:32.114Z,50
2018-12-19T09:50:40.781Z,50
2018-12-19T09:51:49.451Z,60
2018-12-19T09:52:58.151Z,70
2018-12-19T09:54:06.813Z,75
2018-12-19T09:55:15.481Z,80
2018-12-19T09:56:24.438Z,85
2018-12-19T09:57:33.116Z,90
2018-12-19T09:58:41.793Z,90
2018-12-19T09:59:50.478Z,90
2018-12-19T10:00:59.726Z,100
2018-12-19T10:02:08.420Z,110
2018-12-19T10:03:17.086Z,120
2018-12-19T10:04:25.760Z,115
2018-12-19T10:05:34.427Z,105
2018-12-19T10:06:43.096Z,100
2018-12-19T10:07:51.774Z,100
2018-12-19T10:09:00.447Z,110
2018-12-19T10:10:09.122Z,120
2018-12-19T10:11:23.066Z,120
2018-12-19T10:12:31.739Z,120
2018-12-19T10:13:40.414Z,115
2018-12-19T10:14:49.346Z,110
2018-12-19T10:15:58.009Z,110
2018-12-19T10:17:06.676Z,115
2018-12-19T10:18:15.344Z,120
2018-12-19T10:19:24.013Z,125
2018-12-19T10:20:32.674Z,130
2018-12-19T10:21:41.346Z,130
2018-12-19T10:22:50.029Z,125
2018-12-19T10:23:58.699Z,125
2018-12-19T10:25:07.368Z,125
2018-12-19T10:26:16.537Z,125
2018-12-19T10:27:26.170Z,125
2018-12-19T10:28:34.833Z,130
2018-12-19T10:29:43.515Z,125
2018-12-19T10:30:52.189Z,120
2018-12-19T10:32:00.876Z,115
2018-12-19T10:33:09.544Z,115
2018-12-19T10:34:18.230Z,110
2018-12-19T10:35:26.891Z,115
2018-12-19T10:36:35.573Z,115
2018-12-19T10:37:44.246Z,110
2018-12-19T10:38:53.063Z,105
2018-12-19T10:40:01.946Z,105
2018-12-19T10:41:10.639Z,110
2018-12-19T10:42:19.833Z,110
2018-12-19T10:43:28.868Z,105
2018-12-19T10:44:37.806Z,105
2018-12-19T10:45:46.471Z,110
2018-12-19T10:46:55.183Z,125
2018-12-19T10:48:03.840Z,110
2018-12-19T10:49:12.518Z,110
2018-12-19T10:50:21.180Z,110
2018-12-19T10:51:29.854Z,115
2018-12-19T10:52:38.511Z,110
2018-12-19T10:53:47.200Z,115
2018-12-19T10:54:55.924Z,120
2018-12-19T10:56:04.860Z,120
2018-12-19T10:57:13.553Z,120
2018-12-19T10:58:22.249Z,135
2018-12-19T10:59:30.932Z,120
2018-12-19T11:00:39.907Z,125
2018-12-19T11:01:48.585Z,120
2018-12-19T11:02:57.372Z,140
2018-12-19T11:04:06.078Z,130
2018-12-19T11:05:14.995Z,125
2018-12-19T11:06:23.693Z,130
2018-12-19T11:07:32.351Z,135
2018-12-19T11:08:41.028Z,135
2018-12-19T11:09:49.759Z,160
2018-12-19T11:10:58.442Z,165
2018-12-19T11:12:07.104Z,155
2018-12-19T11:13:15.784Z,135
2018-12-19T11:14:25.005Z,135
2018-12-19T11:15:33.686Z,145
2018-12-19T11:16:42.352Z,115
2018-12-19T11:17:51.279Z,110
2018-12-19T11:18:59.952Z,115
2018-12-19T11:20:08.631Z,120
2018-12-19T11:21:17.297Z,120
2018-12-19T11:22:25.974Z,125
2018-12-19T11:23:34.644Z,120
2018-12-19T11:24:43.321Z,115
2018-12-19T11:25:51.984Z,110
2018-12-19T11:27:00.658Z,110
2018-12-19T11:28:09.323Z,110
2018-12-19T11:29:18.000Z,140
2018-12-19T11:30:26.715Z,140
2018-12-19T11:31:36.271Z,130
2018-12-19T11:32:45.243Z,120
2018-12-19T11:33:53.931Z,125
2018-12-19T11:35:02.600Z,115
2018-12-19T11:36:12.389Z,115
2018-12-19T11:37:21.086Z,110
2018-12-19T11:38:29.754Z,100
2018-12-19T11:39:38.725Z,95
2018-12-19T11:40:47.393Z,95
2018-12-19T11:41:56.101Z,90
2018-12-19T11:43:05.130Z,90
2018-12-19T11:44:13.981Z,100
2018-12-19T11:45:22.656Z,100
2018-12-19T11:46:31.585Z,100
2018-12-19T11:47:40.244Z,100
2018-12-19T11:48:48.972Z,90
2018-12-19T11:49:57.951Z,85
2018-12-19T11:51:07.268Z,95
2018-12-19T11:52:17.085Z,105
2018-12-19T11:53:26.022Z,105
2018-12-19T11:54:34.696Z,110
2018-12-19T11:55:43.402Z,115
2018-12-19T11:56:52.072Z,120
2018-12-19T11:58:00.745Z,115
2018-12-19T11:59:09.422Z,115
2018-12-19T12:00:18.154Z,140
2018-12-19T12:01:26.850Z,125
2018-12-19T12:02:35.771Z,115
2018-12-19T12:03:44.452Z,110
2018-12-19T12:04:53.124Z,110
2018-12-19T12:06:01.806Z,105
2018-12-19T12:07:10.474Z,95
2018-12-19T12:08:19.407Z,100
2018-12-19T12:09:28.073Z,110
2018-12-19T12:10:36.916Z,110
2018-12-19T12:11:51.958Z,105
2018-12-19T12:13:00.631Z,105
2018-12-19T12:14:11.936Z,95
2018-12-19T12:15:20.881Z,100
2018-12-19T12:16:30.256Z,100
2018-12-19T12:17:38.925Z,95
2018-12-19T12:18:47.597Z,85
2018-12-19T12:19:56.585Z,75
2018-12-19T12:21:05.286Z,70
2018-12-19T12:22:13.956Z,65
2018-12-19T12:23:22.892Z,70
2018-12-19T12:24:31.810Z,75
2018-12-19T12:25:40.489Z,80
2018-12-19T12:26:49.169Z,85
2018-12-19T12:27:57.869Z,95
2018-12-19T12:29:06.542Z,100
2018-12-19T12:30:15.486Z,100
2018-12-19T12:31:24.441Z,100
2018-12-19T12:32:33.377Z,95
2018-12-19T12:33:42.060Z,100
2018-12-19T12:34:50.730Z,105
2018-12-19T12:35:59.661Z,100
2018-12-19T12:37:08.359Z,90
2018-12-19T12:38:17.047Z,95
2018-12-19T12:39:25.718Z,95
2018-12-19T12:40:34.398Z,100
2018-12-19T12:41:43.075Z,100
2018-12-19T12:42:51.762Z,100
2018-12-19T12:44:00.434Z,100
2018-12-19T12:45:09.366Z,95
2018-12-19T12:46:18.056Z,85
2018-12-19T12:47:26.738Z,70
2018-12-19T12:48:35.414Z,55
2018-12-19T12:49:44.344Z,45
2018-12-19T12:50:53.014Z,45
2018-12-19T12:52:01.934Z,55
2018-12-19T12:53:10.611Z,55
2018-12-19T12:54:19.285Z,60
2018-12-19T12:55:27.960Z,55
2018-12-19T12:56:36.632Z,55
2018-12-19T12:57:45.307Z,55
2018-12-19T12:58:54.002Z,55
2018-12-19T13:00:02.696Z,50
2018-12-19T13:01:11.364Z,40
2018-12-19T13:02:20.552Z,40
2018-12-19T13:03:29.226Z,35
2018-12-19T13:04:37.898Z,35
2018-12-19T13:05:46.569Z,35
2018-12-19T13:06:55.503Z,40
2018-12-19T13:08:04.180Z,40
2018-12-19T13:09:12.857Z,40
2018-12-19T13:10:21.789Z,40
2018-12-19T13:11:30.456Z,35
2018-12-19T13:12:39.130Z,30
2018-12-19T13:13:47.805Z,25
2018-12-19T13:14:56.480Z,30
2018-12-19T13:16:05.149Z,30
2018-12-19T13:17:13.824Z,35
2018-12-19T13:18:23.422Z,40
2018-12-19T13:19:32.101Z,40
2018-12-19T13:20:40.832Z,40
2018-12-19T13:21:49.509Z,40
2018-12-19T13:22:58.179Z,45
2018-12-19T13:24:06.864Z,50
2018-12-19T13:25:15.535Z,50
2018-12-19T13:26:24.202Z,50
2018-12-19T13:27:32.870Z,55
2018-12-19T13:28:41.540Z,50
2018-12-19T13:29:50.223Z,45
2018-12-19T13:30:58.889Z,55
2018-12-19T13:32:07.817Z,55
2018-12-19T13:33:16.486Z,45
2018-12-19T13:34:25.179Z,35
2018-12-19T13:35:33.852Z,35
2018-12-19T13:36:42.524Z,35
2018-12-19T13:37:51.189Z,35
2018-12-19T13:39:00.126Z,35
2018-12-19T13:40:08.809Z,35
2018-12-19T13:41:17.481Z,35
2018-12-19T13:42:26.152Z,30
2018-12-19T13:43:34.827Z,30
2018-12-19T13:44:43.541Z,30
2018-12-19T13:45:54.460Z,30
2018-12-19T13:47:03.166Z,30
2018-12-19T13:48:13.055Z,30
2018-12-19T13:49:21.739Z,30
2018-12-19T13:50:31.433Z,25
2018-12-19T13:51:40.181Z,25
2018-12-19T13:52:48.844Z,20
2018-12-19T13:53:57.517Z,20
2018-12-19T13:55:06.205Z,25
2018-12-19T13:56:14.963Z,25
2018-12-19T13:57:23.635Z,25
2018-12-19T13:58:32.320Z,30
2018-12-19T13:59:40.999Z,30
2018-12-19T14:00:49.676Z,30
2018-12-19T14:01:58.383Z,30
2018-12-19T14:03:07.052Z,30
2018-12-19T14:04:15.729Z,30
2018-12-19T14:05:24.406Z,30
2018-12-19T14:06:33.359Z,30
2018-12-19T14:07:42.028Z,25
2018-12-19T14:08:50.706Z,25
2018-12-19T14:09:59.450Z,25
2018-12-19T14:11:08.129Z,30
2018-12-19T14:12:21.187Z,35
2018-12-19T14:13:30.115Z,35
2018-12-19T14:14:39.039Z,35
2018-12-19T14:15:47.711Z,30
2018-12-19T14:16:56.378Z,30
2018-12-19T14:18:05.057Z,30
2018-12-19T14:19:13.730Z,30
2018-12-19T14:20:22.407Z,25
2018-12-19T14:21:31.077Z,25
2018-12-19T14:22:39.754Z,20
2018-12-19T14:23:48.424Z,20
2018-12-19T14:24:57.092Z,20
2018-12-19T14:26:05.763Z,20
2018-12-19T14:27:14.685Z,20
2018-12-19T14:28:23.382Z,25
2018-12-19T14:29:32.054Z,30
2018-12-19T14:30:40.727Z,30
2018-12-19T14:31:49.398Z,25
2018-12-19T14:32:58.073Z,25
2018-12-19T14:34:06.746Z,20
2018-12-19T14:35:15.422Z,20
2018-12-19T14:36:24.097Z,20
2018-12-19T14:37:32.774Z,25
2018-12-19T14:38:42.777Z,25
2018-12-19T14:39:51.507Z,25
2018-12-19T14:41:00.178Z,25
2018-12-19T14:42:08.848Z,20
2018-12-19T14:43:17.771Z,15
2018-12-19T14:44:26.709Z,15
2018-12-19T14:45:35.376Z,15
2018-12-19T14:46:44.043Z,15
2018-12-19T14:47:52.724Z,15
2018-12-19T14:49:01.397Z,15
2018-12-19T14:50:10.608Z,15
2018-12-19T14:51:19.273Z,10
2018-12-19T14:52:27.952Z,10
2018-12-19T14:53:36.620Z,10
2018-12-19T14:54:45.302Z,10
2018-12-19T14:55:53.969Z,10
2018-12-19T14:57:02.645Z,10
2018-12-19T14:58:11.319Z,5
2018-12-19T14:59:19.995Z,5
2018-12-19T15:00:28.670Z,5
2018-12-19T15:01:37.332Z,5
2018-12-19T15:02:46.021Z,10
2018-12-19T15:03:54.949Z,10
2018-12-19T15:05:03.645Z,10
2018-12-19T15:06:12.579Z,10
2018-12-19T15:07:21.507Z,10
2018-12-19T15:08:30.174Z,10
2018-12-19T15:09:39.092Z,10
2018-12-19T15:10:47.930Z,10
2018-12-19T15:11:56.632Z,10
2018-12-19T15:13:05.300Z,5
2018-12-19T15:14:13.968Z,5
2018-12-19T15:15:22.651Z,5
2018-12-19T15:16:31.322Z,5
2018-12-19T15:17:40.070Z,5
2018-12-19T15:18:48.749Z,5
2018-12-19T15:19:57.425Z,5
2018-12-19T15:21:06.097Z,5
2018-12-19T15:22:14.769Z,5
2018-12-19T15:23:23.450Z,0
2018-12-19T15:24:32.120Z,0
2018-12-19T15:25:40.804Z,0
2018-12-19T15:26:49.474Z,0
2018-12-19T15:27:58.149Z,0
2018-12-19T15:29:06.821Z,0
2018-12-19T15:30:15.514Z,0
2018-12-19T15:31:24.434Z,0
2018-12-19T15:32:33.109Z,0
2018-12-19T15:33:42.062Z,0
2018-12-19T15:34:50.984Z,0
2018-12-19T15:35:59.651Z,0
2018-12-19T15:37:08.319Z,0
2018-12-19T15:38:16.996Z,0
2018-12-19T15:39:25.665Z,0
2018-12-19T15:40:34.402Z,0
2018-12-19T15:41:43.066Z,0
2018-12-19T15:42:51.742Z,0
2018-12-19T15:44:00.412Z,0
2018-12-19T15:45:10.191Z,0
2018-12-19T15:46:18.909Z,0
2018-12-19T15:47:27.587Z,0
2018-12-19T15:48:36.253Z,0
2018-12-19T15:49:44.924Z,0
2018-12-19T15:50:53.610Z,0
2018-12-19T15:52:02.291Z,0
2018-12-19T15:53:10.962Z,0
2018-12-19T15:54:19.637Z,0
2018-12-19T15:55:28.311Z,0
2018-12-19T15:56:37.010Z,0
2018-12-19T15:57:45.941Z,0
2018-12-19T15:58:54.620Z,0
2018-12-19T16:00:03.293Z,0
2018-12-19T16:01:11.957Z,0
2018-12-19T16:02:20.627Z,0
2018-12-19T16:03:29.316Z,0
2018-12-19T16:04:38.064Z,0
2018-12-19T16:05:47.249Z,0
2018-12-19T16:06:55.922Z,0
2018-12-19T16:08:04.601Z,0
2018-12-19T16:09:13.344Z,0
2018-12-19T16:10:22.016Z,0
2018-12-19T16:11:30.685Z,0
2018-12-19T16:12:45.603Z,0
2018-12-19T16:13:54.536Z,0
2018-12-19T16:15:03.214Z,0
2018-12-19T16:16:12.144Z,0
2018-12-19T16:17:20.822Z,0
2018-12-19T16:18:29.480Z,0
2018-12-19T16:19:38.157Z,0
2018-12-19T16:20:46.820Z,0
2018-12-19T16:21:55.490Z,0
2018-12-19T16:23:04.162Z,0
2018-12-19T16:24:12.845Z,0
2018-12-19T16:25:21.514Z,0
2018-12-19T16:26:30.444Z,0
2018-12-19T16:27:39.107Z,0
2018-12-19T16:28:47.810Z,0
2018-12-19T16:29:56.748Z,0
2018-12-19T16:31:05.420Z,0
2018-12-19T16:32:14.105Z,0
2018-12-19T16:33:22.770Z,0
2018-12-19T16:34:31.443Z,0
2018-12-19T16:35:40.113Z,0
2018-12-19T16:36:48.790Z,0
2018-12-19T16:37:57.457Z,0